Time;durP1;ratioP1;P1;durP2;ratioP2;P2;SDS_P1;SDS_P2;PMS_P1;PMS_P2;Temp;Humidity;BMP_temperature;BMP_pressure;BME280_temperature;BME280_humidity;BME280_pressure;Samples;Min_cycle;Max_cycle;Signal;HPM_P1;HPM_P2
2021/12/22 00:02:11;;;;;;;11.35;5.57;;;;;;;-4.26;90.74;101503.97;5074278;28;20086;-55
2021/12/22 00:04:43;;;;;;;11.80;5.30;;;;;;;-4.29;90.11;101500.34;5075588;28;20427;-54
2021/12/22 00:07:09;;;;;;;14.52;6.88;;;;;;;-4.33;89.82;101514.69;5075512;28;20093;-53
2021/12/22 00:09:35;;;;;;;10.95;5.93;;;;;;;-4.35;89.80;101513.72;5075315;28;20131;-55
2021/12/22 00:12:01;;;;;;;18.05;8.27;;;;;;;-4.40;89.78;101502.28;5075260;28;20043;-53
2021/12/22 00:14:26;;;;;;;12.93;6.30;;;;;;;-4.38;89.82;101516.09;5075411;28;20043;-55
2021/12/22 00:16:51;;;;;;;13.18;5.78;;;;;;;-4.36;89.83;101516.19;5075187;28;20373;-55
2021/12/22 00:19:17;;;;;;;12.27;5.85;;;;;;;-4.32;89.41;101525.81;5075234;28;20036;-55
2021/12/22 00:21:42;;;;;;;10.98;4.90;;;;;;;-4.30;89.20;101520.00;5075241;28;20036;-55
2021/12/22 00:24:08;;;;;;;9.75;5.47;;;;;;;-4.31;88.70;101533.63;5074363;28;20468;-55
2021/12/22 00:26:33;;;;;;;11.93;5.30;;;;;;;-4.30;88.33;101527.69;5074934;28;20025;-54
2021/12/22 00:28:59;;;;;;;9.73;4.60;;;;;;;-4.28;88.13;101528.63;5072636;28;20025;-54
2021/12/22 00:31:24;;;;;;;11.45;4.85;;;;;;;-4.32;87.71;101526.69;5074832;28;20048;-56
2021/12/22 00:33:52;;;;;;;10.18;4.65;;;;;;;-4.35;87.80;101529.13;5075131;28;20392;-55
2021/12/22 00:36:22;;;;;;;9.23;4.55;;;;;;;-4.36;87.42;101532.47;5055189;28;20037;-55
2021/12/22 00:38:49;;;;;;;11.73;5.53;;;;;;;-4.40;87.04;101537.34;5054878;28;20041;-55
2021/12/22 00:41:15;;;;;;;9.48;4.38;;;;;;;-4.39;87.05;101536.53;5054529;28;20033;-55
2021/12/22 00:43:41;;;;;;;9.15;4.68;;;;;;;-4.42;86.86;101531.25;5054870;28;20029;-53
2021/12/22 00:46:07;;;;;;;10.93;5.00;;;;;;;-4.40;86.93;101535.66;5054765;28;20086;-54
2021/12/22 00:48:32;;;;;;;8.77;4.63;;;;;;;-4.42;87.21;101537.25;5054737;28;20447;-53
2021/12/22 00:50:58;;;;;;;8.85;4.78;;;;;;;-4.45;86.11;101549.91;5054546;28;20037;-54
2021/12/22 00:53:24;;;;;;;10.57;4.75;;;;;;;-4.38;86.46;101541.78;5054613;28;20025;-55
2021/12/22 00:55:50;;;;;;;10.60;5.05;;;;;;;-4.37;86.57;101532.38;5054552;28;20041;-53
2021/12/22 00:58:16;;;;;;;10.18;4.25;;;;;;;-4.45;85.61;101534.50;5061329;28;20028;-51
2021/12/22 01:00:42;;;;;;;9.15;4.53;;;;;;;-4.47;85.69;101534.44;5074280;28;20036;-54
2021/12/22 01:03:08;;;;;;;9.32;4.30;;;;;;;-4.45;85.77;101534.50;5074278;28;20538;-52
2021/12/22 01:05:34;;;;;;;8.55;4.15;;;;;;;-4.50;85.55;101539.38;5074242;28;20052;-53
2021/12/22 01:07:59;;;;;;;9.20;3.70;;;;;;;-4.47;85.80;101537.00;5074224;28;20032;-56
2021/12/22 01:10:28;;;;;;;8.68;4.50;;;;;;;-4.45;85.52;101531.94;5056937;28;20028;-54
2021/12/22 01:12:57;;;;;;;6.97;3.55;;;;;;;-4.42;85.42;101532.13;5060320;28;20067;-52
2021/12/22 01:15:23;;;;;;;6.75;3.55;;;;;;;-4.38;84.91;101540.88;5054087;28;20124;-52
2021/12/22 01:17:56;;;;;;;5.85;3.05;;;;;;;-4.38;84.69;101536.63;5054235;28;20036;-55
2021/12/22 01:21:15;;;;;;;6.55;3.20;;;;;;;-4.36;84.70;101547.84;5054128;28;20033;-56
2021/12/22 01:23:07;;;;;;;6.55;3.28;;;;;;;-4.37;83.33;101545.22;5049892;28;20080;-55
2021/12/22 01:25:42;;;;;;;7.53;3.80;;;;;;;-4.40;83.21;101533.09;5054041;28;20128;-56
2021/12/22 01:28:09;;;;;;;9.68;4.10;;;;;;;-4.40;82.56;101535.66;5055153;28;20060;-55
2021/12/22 01:30:36;;;;;;;9.02;4.10;;;;;;;-4.38;81.49;101541.78;5064910;28;20052;-55
2021/12/22 01:33:03;;;;;;;9.80;3.72;;;;;;;-4.33;82.49;101545.47;5068587;28;20029;-54
2021/12/22 01:35:32;;;;;;;5.75;3.53;;;;;;;-4.34;82.10;101545.41;5073390;28;20447;-54
2021/12/22 01:37:57;;;;;;;7.25;3.42;;;;;;;-4.35;81.82;101551.31;5073811;28;20035;-51
2021/12/22 01:40:23;;;;;;;7.03;3.58;;;;;;;-4.25;81.81;101548.47;5070910;28;20388;-54
2021/12/22 01:42:50;;;;;;;9.45;4.18;;;;;;;-4.21;80.73;101551.28;5053674;28;20037;-54
2021/12/22 01:45:36;;;;;;;6.18;3.38;;;;;;;-4.05;81.63;101547.91;5053474;28;20025;-56
2021/12/22 01:50:49;;;;;;;8.63;4.20;;;;;;;-3.87;80.43;101542.00;5053649;28;20051;-51
2021/12/22 01:53:20;;;;;;;5.78;3.40;;;;;;;-3.80;79.85;101547.56;5053432;28;20028;-53
2021/12/22 01:55:59;;;;;;;7.93;3.58;;;;;;;-3.82;79.19;101545.72;5053302;28;20432;-53
2021/12/22 01:58:47;;;;;;;7.13;3.58;;;;;;;-3.86;78.44;101542.13;5051772;28;20028;-54
2021/12/22 02:01:15;;;;;;;9.13;4.20;;;;;;;-3.97;79.08;101538.94;5053709;28;20037;-55
2021/12/22 02:03:42;;;;;;;8.02;3.88;;;;;;;-3.97;79.93;101536.38;5033112;28;20026;-54
2021/12/22 02:06:08;;;;;;;10.00;5.97;;;;;;;-4.05;79.81;101537.63;5033294;28;20037;-56
2021/12/22 02:08:38;;;;;;;10.80;5.95;;;;;;;-4.08;80.20;101541.72;5033293;28;20034;-52
2021/12/22 02:11:04;;;;;;;9.40;4.65;;;;;;;-4.27;80.33;101540.69;5033002;28;20052;-52
2021/12/22 02:13:35;;;;;;;15.23;7.45;;;;;;;-4.35;80.62;101546.16;5033335;28;20489;-52
2021/12/22 02:16:10;;;;;;;8.10;3.95;;;;;;;-4.43;81.31;101547.41;5033276;28;20481;-54
2021/12/22 02:18:46;;;;;;;9.40;4.75;;;;;;;-4.53;81.72;101548.59;5033057;28;20462;-51
2021/12/22 02:21:12;;;;;;;8.60;4.40;;;;;;;-4.65;81.75;101550.44;5031719;28;20357;-50
2021/12/22 02:23:39;;;;;;;10.75;4.05;;;;;;;-4.72;81.92;101562.00;5033020;28;20048;-55
2021/12/22 02:26:16;;;;;;;11.15;4.05;;;;;;;-4.74;82.66;101561.94;5033207;28;20033;-53
2021/12/22 02:28:45;;;;;;;7.50;3.70;;;;;;;-4.78;82.58;101562.53;5033034;28;20481;-54
2021/12/22 02:31:15;;;;;;;7.55;3.72;;;;;;;-4.84;82.86;101541.66;5032988;28;20046;-54
2021/12/22 02:33:43;;;;;;;6.68;3.15;;;;;;;-4.84;82.62;101549.34;5070792;28;20056;-53
2021/12/22 02:38:46;;;;;;;6.50;3.40;;;;;;;-4.87;82.61;101544.03;5072872;28;20036;-55
2021/12/22 02:41:15;;;;;;;7.72;3.47;;;;;;;-4.89;82.76;101545.63;5063287;28;20104;-52
2021/12/22 02:43:54;;;;;;;8.02;3.65;;;;;;;-4.88;82.58;101547.41;5052913;28;20116;-51
2021/12/22 02:46:27;;;;;;;9.63;3.10;;;;;;;-4.88;82.26;101551.66;5052757;28;20072;-55
2021/12/22 02:48:53;;;;;;;6.35;2.90;;;;;;;-4.89;82.00;101555.91;5056468;28;20078;-51
2021/12/22 02:51:20;;;;;;;6.03;2.97;;;;;;;-4.88;82.12;101552.53;5057131;28;20044;-54
2021/12/22 02:54:02;;;;;;;7.47;3.47;;;;;;;-4.85;82.05;101551.84;5055568;28;20044;-54
2021/12/22 02:56:36;;;;;;;6.03;2.97;;;;;;;-4.87;81.54;101548.28;5056720;28;20040;-56
2021/12/22 02:59:18;;;;;;;5.88;2.53;;;;;;;-4.86;81.46;101556.09;5056745;28;20043;-55
2021/12/22 03:04:23;;;;;;;5.25;2.95;;;;;;;-4.85;81.20;101547.59;5058616;28;20120;-53
2021/12/22 03:07:00;;;;;;;6.72;2.92;;;;;;;-4.86;81.06;101548.38;5056582;28;20084;-53
2021/12/22 03:09:31;;;;;;;8.02;4.15;;;;;;;-4.85;80.50;101546.72;5056793;28;20033;-55
2021/12/22 03:12:00;;;;;;;6.03;2.85;;;;;;;-4.84;80.89;101546.78;5056486;28;20477;-55
2021/12/22 03:14:26;;;;;;;7.75;2.97;;;;;;;-4.85;80.80;101544.16;5056617;28;20029;-53
2021/12/22 03:16:53;;;;;;;5.63;2.70;;;;;;;-4.91;80.83;101536.97;5055461;28;20037;-55
2021/12/22 03:19:22;;;;;;;5.60;2.50;;;;;;;-4.93;80.96;101542.81;5056052;28;20033;-55
2021/12/22 03:21:49;;;;;;;7.40;2.85;;;;;;;-4.92;80.94;101545.44;5056068;28;20075;-52
2021/12/22 03:24:18;;;;;;;8.27;3.45;;;;;;;-4.94;80.66;101552.19;5056264;28;20095;-54
2021/12/22 03:26:44;;;;;;;5.78;3.00;;;;;;;-4.95;80.62;101552.94;5056422;28;20147;-52
2021/12/22 03:29:11;;;;;;;5.13;2.85;;;;;;;-4.93;80.68;101555.63;5056207;28;20131;-54
2021/12/22 03:31:37;;;;;;;6.97;3.20;;;;;;;-4.96;80.67;101556.31;5055712;28;20049;-56
2021/12/22 03:34:02;;;;;;;8.07;4.63;;;;;;;-4.98;80.45;101563.94;5055513;28;20117;-55
2021/12/22 03:36:28;;;;;;;10.15;4.95;;;;;;;-5.01;80.57;101557.72;5056740;28;20033;-54
2021/12/22 03:38:53;;;;;;;8.77;4.82;;;;;;;-5.01;80.80;101567.97;5056033;28;20329;-54
2021/12/22 03:41:19;;;;;;;7.28;3.13;;;;;;;-4.99;80.87;101561.25;5042558;28;20455;-54
2021/12/22 03:43:44;;;;;;;6.10;2.90;;;;;;;-5.00;80.61;101565.50;5038196;28;20400;-55
2021/12/22 03:46:10;;;;;;;6.13;3.05;;;;;;;-5.02;80.50;101564.53;5052250;28;20033;-52
2021/12/22 03:48:35;;;;;;;16.75;8.45;;;;;;;-5.02;80.25;101563.66;5051745;28;20434;-54
2021/12/22 03:51:02;;;;;;;7.80;3.83;;;;;;;-5.08;79.24;101559.03;5035667;28;20362;-54
2021/12/22 03:53:27;;;;;;;6.18;2.70;;;;;;;-4.99;80.13;101568.94;5034678;28;20033;-51
2021/12/22 03:55:53;;;;;;;16.00;7.70;;;;;;;-4.99;79.89;101561.25;5035808;28;20060;-54
2021/12/22 03:58:19;;;;;;;8.60;4.30;;;;;;;-4.99;79.60;101567.28;5035466;28;20088;-55
2021/12/22 04:00:45;;;;;;;8.00;4.22;;;;;;;-5.01;79.76;101566.31;5039117;28;20022;-55
2021/12/22 04:03:16;;;;;;;7.07;2.95;;;;;;;-5.03;79.58;101559.31;5055350;28;20041;-53
2021/12/22 04:05:43;;;;;;;6.85;2.78;;;;;;;-5.04;79.65;101565.22;5055749;28;20037;-53
2021/12/22 04:08:11;;;;;;;9.85;4.20;;;;;;;-5.08;79.10;101559.03;5055586;28;20037;-56
2021/12/22 04:10:36;;;;;;;14.52;6.82;;;;;;;-5.18;79.28;101563.53;5055300;28;20384;-51
2021/12/22 04:13:02;;;;;;;5.88;2.78;;;;;;;-5.13;79.63;101559.56;5055285;28;20028;-55
2021/12/22 04:15:28;;;;;;;6.97;3.30;;;;;;;-5.18;79.36;101566.09;5057008;28;20092;-52
2021/12/22 04:17:54;;;;;;;6.63;3.45;;;;;;;-5.21;79.41;101567.66;5075157;28;20048;-52
2021/12/22 04:20:20;;;;;;;6.63;3.13;;;;;;;-5.26;79.57;101566.50;5075094;28;20038;-55
2021/12/22 04:22:46;;;;;;;6.72;3.22;;;;;;;-5.34;79.01;101560.03;5066428;28;20452;-55
2021/12/22 04:25:20;;;;;;;6.90;3.83;;;;;;;-5.27;79.71;101566.41;5036378;28;20063;-52
2021/12/22 04:27:46;;;;;;;9.65;3.85;;;;;;;-5.31;79.06;101556.75;5035502;28;20029;-53
2021/12/22 04:30:11;;;;;;;8.85;4.40;;;;;;;-5.33;79.46;101564.38;5041248;28;20476;-55
2021/12/22 04:32:37;;;;;;;8.02;3.83;;;;;;;-5.35;79.86;101563.38;5054956;28;20067;-55
2021/12/22 04:35:02;;;;;;;7.25;3.13;;;;;;;-5.33;79.86;101563.47;5054864;28;20134;-52
2021/12/22 04:37:28;;;;;;;4.75;2.10;;;;;;;-5.33;79.73;101566.94;5047171;28;20184;-55
2021/12/22 04:39:53;;;;;;;4.97;2.10;;;;;;;-5.31;79.93;101567.88;5038420;28;20045;-54
2021/12/22 04:42:19;;;;;;;5.45;2.60;;;;;;;-5.36;79.65;101570.97;5034806;28;20042;-53
2021/12/22 04:44:45;;;;;;;4.15;2.40;;;;;;;-5.34;79.68;101572.84;5044562;28;20041;-53
2021/12/22 04:47:11;;;;;;;3.83;2.25;;;;;;;-5.36;79.70;101561.59;5054559;28;20151;-54
2021/12/22 04:49:36;;;;;;;5.28;2.10;;;;;;;-5.38;79.41;101578.56;5054727;28;20048;-56
2021/12/22 04:52:06;;;;;;;4.13;2.13;;;;;;;-5.31;79.50;101584.94;5052981;28;20376;-53
2021/12/22 04:54:42;;;;;;;5.50;2.55;;;;;;;-5.32;79.33;101578.94;5054666;28;20044;-52
2021/12/22 04:57:07;;;;;;;5.55;3.08;;;;;;;-5.33;79.11;101582.28;5054604;28;20043;-52
2021/12/22 04:59:32;;;;;;;8.15;3.65;;;;;;;-5.35;79.45;101578.75;5040828;28;20033;-53
2021/12/22 05:01:58;;;;;;;6.00;3.20;;;;;;;-5.31;79.37;101582.38;5038116;28;20037;-54
2021/12/22 05:04:23;;;;;;;6.07;3.05;;;;;;;-5.25;79.31;101581.09;5032299;28;20041;-52
2021/12/22 05:06:48;;;;;;;7.13;3.80;;;;;;;-5.24;78.98;101577.72;5049369;28;20107;-55
2021/12/22 05:09:14;;;;;;;6.25;3.30;;;;;;;-5.18;79.21;101572.09;5053049;28;20033;-52
2021/12/22 05:11:40;;;;;;;6.70;3.80;;;;;;;-5.20;78.35;101574.56;5052377;28;20032;-55
2021/12/22 05:14:08;;;;;;;6.13;3.25;;;;;;;-5.16;78.84;101574.75;5052080;28;20037;-54
2021/12/22 05:16:33;;;;;;;7.10;3.88;;;;;;;-5.20;78.68;101578.78;5054030;28;20044;-54
2021/12/22 05:19:20;;;;;;;7.60;3.63;;;;;;;-5.20;78.80;101572.00;5052310;28;20037;-57
2021/12/22 05:21:45;;;;;;;6.80;3.58;;;;;;;-5.22;78.30;101580.41;5033635;28;20477;-56
2021/12/22 05:24:11;;;;;;;8.43;4.10;;;;;;;-5.17;78.37;101580.66;5048511;28;20144;-52
2021/12/22 05:26:37;;;;;;;8.55;4.65;;;;;;;-5.13;78.61;101585.19;5053363;28;20032;-52
2021/12/22 05:29:04;;;;;;;6.65;3.42;;;;;;;-5.10;78.44;101585.38;5052093;28;20033;-56
2021/12/22 05:31:31;;;;;;;7.82;4.05;;;;;;;-5.09;77.84;101582.91;5033853;28;20053;-54
2021/12/22 05:33:57;;;;;;;6.20;3.20;;;;;;;-5.07;78.01;101583.88;5034050;28;20041;-53
2021/12/22 05:36:22;;;;;;;8.05;4.20;;;;;;;-5.02;77.97;101582.47;5033633;28;20381;-55
2021/12/22 05:38:48;;;;;;;8.15;4.75;;;;;;;-5.03;77.86;101584.94;5033721;28;20029;-56
2021/12/22 05:41:14;;;;;;;6.18;3.45;;;;;;;-4.94;78.32;101575.25;5046157;28;20045;-54
2021/12/22 05:43:39;;;;;;;6.63;3.70;;;;;;;-4.92;77.69;101576.22;5052548;28;20082;-53
2021/12/22 05:46:05;;;;;;;12.63;8.27;;;;;;;-4.89;77.76;101586.66;5053826;28;20079;-51
2021/12/22 05:48:30;;;;;;;6.88;4.78;;;;;;;-4.80;77.69;101589.75;5037412;28;20045;-52
2021/12/22 05:50:58;;;;;;;5.97;4.00;;;;;;;-4.73;77.52;101593.59;5034681;28;20030;-54
2021/12/22 05:53:28;;;;;;;8.57;4.57;;;;;;;-4.74;77.56;101592.72;5035854;28;20033;-52
2021/12/22 05:55:54;;;;;;;8.70;5.88;;;;;;;-4.65;77.54;101586.34;5042976;28;20087;-52
2021/12/22 05:58:21;;;;;;;9.88;6.68;;;;;;;-4.58;77.60;101601.31;5045316;28;20080;-55
2021/12/22 06:00:47;;;;;;;8.00;6.03;;;;;;;-4.55;77.16;101604.94;5038129;28;20032;-51
2021/12/22 06:03:13;;;;;;;6.53;4.13;;;;;;;-4.47;77.44;101602.78;5037229;28;20048;-54
2021/12/22 06:05:40;;;;;;;7.45;4.07;;;;;;;-4.34;77.63;101600.16;5034577;28;20385;-53
2021/12/22 06:08:06;;;;;;;16.15;8.30;;;;;;;-4.25;76.94;101605.81;5033491;28;20033;-54
2021/12/22 06:10:34;;;;;;;53.13;29.00;;;;;;;-4.14;76.90;101601.31;5033607;28;20037;-53
2021/12/22 06:13:04;;;;;;;32.97;17.73;;;;;;;-4.06;77.31;101609.44;5034521;28;20057;-52
2021/12/22 06:15:31;;;;;;;25.02;12.80;;;;;;;-3.94;77.68;101604.13;5033851;28;20065;-54
2021/12/22 06:17:58;;;;;;;27.60;15.45;;;;;;;-3.84;77.04;101609.84;5033691;28;20033;-51
2021/12/22 06:20:24;;;;;;;16.25;9.45;;;;;;;-3.74;76.98;101612.13;5044885;28;20055;-54
2021/12/22 06:22:50;;;;;;;12.85;6.93;;;;;;;-3.67;76.15;101608.22;5036816;28;20049;-56
2021/12/22 06:25:16;;;;;;;10.57;6.05;;;;;;;-3.64;75.95;101622.91;5037494;28;20037;-54
2021/12/22 06:27:42;;;;;;;7.80;4.78;;;;;;;-3.62;75.74;101611.03;5037400;28;20059;-54
2021/12/22 06:30:08;;;;;;;8.57;4.43;;;;;;;-3.64;75.07;101622.91;5037252;28;20057;-54
2021/12/22 06:32:33;;;;;;;13.48;5.82;;;;;;;-3.75;74.63;101620.66;5037143;28;20041;-52
2021/12/22 06:34:58;;;;;;;8.77;4.50;;;;;;;-3.79;75.13;101616.13;5035978;28;20037;-53
2021/12/22 06:37:24;;;;;;;7.35;4.30;;;;;;;-3.85;74.68;101623.47;5036726;28;20539;-53
2021/12/22 06:39:49;;;;;;;8.85;4.20;;;;;;;-3.85;74.50;101635.44;5056549;28;20037;-55
2021/12/22 06:42:15;;;;;;;8.27;4.10;;;;;;;-3.91;74.05;101632.50;5038807;28;20034;-54
2021/12/22 06:44:40;;;;;;;7.78;3.85;;;;;;;-3.96;74.26;101624.56;5037269;28;20041;-55
2021/12/22 06:47:07;;;;;;;6.97;3.65;;;;;;;-3.92;74.24;101631.63;5036883;28;20029;-52
2021/12/22 06:49:32;;;;;;;7.30;3.88;;;;;;;-3.90;74.59;101635.19;5036967;28;20416;-54
2021/12/22 06:51:58;;;;;;;5.85;3.72;;;;;;;-3.87;74.37;101644.72;5036771;28;20473;-54
2021/12/22 06:54:23;;;;;;;7.40;3.42;;;;;;;-3.83;74.68;101647.59;5036811;28;20075;-56
2021/12/22 06:56:49;;;;;;;8.68;4.15;;;;;;;-3.81;74.16;101640.84;5042676;28;20431;-54
2021/12/22 06:59:15;;;;;;;10.00;4.57;;;;;;;-3.81;74.19;101653.69;5035896;28;20033;-55
2021/12/22 07:01:40;;;;;;;6.97;4.20;;;;;;;-3.75;74.33;101653.13;5035950;28;20257;-55
2021/12/22 07:04:06;;;;;;;6.85;3.42;;;;;;;-3.70;74.33;101653.41;5043448;28;20519;-52
2021/12/22 07:06:32;;;;;;;10.43;4.80;;;;;;;-3.69;74.10;101655.16;5056304;28;20037;-54
2021/12/22 07:08:59;;;;;;;9.43;4.10;;;;;;;-3.73;74.26;101655.00;5056061;28;20341;-55
2021/12/22 07:11:25;;;;;;;9.13;5.05;;;;;;;-3.69;74.01;101658.63;5036221;28;20029;-54
2021/12/22 07:13:50;;;;;;;8.90;5.03;;;;;;;-3.73;73.58;101654.09;5048315;28;20619;-53
2021/12/22 07:16:16;;;;;;;10.15;6.10;;;;;;;-3.70;74.04;101658.56;5056349;28;20033;-53
2021/12/22 07:18:41;;;;;;;14.20;9.93;;;;;;;-3.70;73.70;101658.56;5054332;28;20036;-54
2021/12/22 07:21:06;;;;;;;23.77;13.52;;;;;;;-3.75;73.89;101656.59;5055708;28;20532;-54
2021/12/22 07:23:32;;;;;;;10.77;6.68;;;;;;;-3.84;73.55;101661.19;5054885;28;20492;-53
2021/12/22 07:25:57;;;;;;;21.55;13.98;;;;;;;-3.91;73.21;101656.53;5055035;28;20469;-54
2021/12/22 07:28:23;;;;;;;16.85;12.13;;;;;;;-3.91;73.85;101653.97;5055820;28;20079;-57
2021/12/22 07:30:48;;;;;;;17.70;11.65;;;;;;;-3.93;74.03;101660.69;5055840;28;20136;-56
2021/12/22 07:33:14;;;;;;;11.45;7.40;;;;;;;-3.98;73.99;101662.13;5053353;28;20484;-54
2021/12/22 07:35:42;;;;;;;10.52;6.35;;;;;;;-4.02;74.49;101661.06;5052602;28;20524;-56
2021/12/22 07:38:13;;;;;;;10.25;5.93;;;;;;;-4.04;74.30;101661.75;5054570;28;20104;-55
2021/12/22 07:40:39;;;;;;;8.75;5.18;;;;;;;-4.09;73.70;101669.19;5054846;28;20029;-56
2021/12/22 07:43:04;;;;;;;10.73;6.28;;;;;;;-3.99;74.06;101665.47;5034673;28;20036;-54
2021/12/22 07:45:29;;;;;;;10.07;6.03;;;;;;;-3.98;73.86;101670.69;5034571;28;20080;-53
2021/12/22 07:47:55;;;;;;;13.82;6.80;;;;;;;-3.98;73.84;101672.38;5034789;28;20033;-54
2021/12/22 07:50:20;;;;;;;13.73;7.50;;;;;;;-4.03;73.22;101668.66;5035427;28;20483;-56
2021/12/22 07:52:46;;;;;;;11.63;6.50;;;;;;;-3.92;73.17;101672.72;5035785;28;20374;-54
2021/12/22 07:55:11;;;;;;;12.60;7.22;;;;;;;-3.87;72.83;101671.31;5035934;28;20435;-55
2021/12/22 07:57:37;;;;;;;10.85;6.43;;;;;;;-3.83;72.75;101667.22;5035792;28;20068;-54
2021/12/22 08:00:05;;;;;;;12.20;6.65;;;;;;;-3.73;72.80;101678.09;5049702;28;20033;-50
2021/12/22 08:02:30;;;;;;;7.88;4.50;;;;;;;-3.59;72.67;101678.00;5045599;28;20044;-50
2021/12/22 08:04:56;;;;;;;12.38;5.78;;;;;;;-3.63;71.90;101678.63;5033950;28;20026;-54
2021/12/22 08:07:21;;;;;;;10.15;5.47;;;;;;;-3.65;72.25;101677.66;5034291;28;20534;-52
2021/12/22 08:09:46;;;;;;;21.05;9.73;;;;;;;-3.60;72.45;101676.22;5040653;28;20037;-51
2021/12/22 08:12:12;;;;;;;23.60;8.48;;;;;;;-3.59;72.19;101683.13;5055390;28;20503;-52
2021/12/22 08:14:39;;;;;;;41.13;13.68;;;;;;;-3.58;72.01;101672.97;5053934;28;20025;-53
2021/12/22 08:17:06;;;;;;;49.03;17.25;;;;;;;-3.54;72.01;101671.44;5055467;28;20040;-52
2021/12/22 08:19:31;;;;;;;24.35;9.60;;;;;;;-3.42;71.96;101674.69;5045698;28;20033;-53
2021/12/22 08:21:57;;;;;;;12.15;6.35;;;;;;;-3.36;71.74;101676.72;5035250;28;20041;-53
2021/12/22 08:24:23;;;;;;;28.88;11.95;;;;;;;-3.29;71.41;101679.69;5036330;28;20048;-54
2021/12/22 08:26:50;;;;;;;16.83;7.82;;;;;;;-3.12;71.20;101680.63;5035442;28;20030;-55
2021/12/22 08:29:15;;;;;;;12.85;7.07;;;;;;;-2.98;71.24;101679.69;5034466;28;20373;-52
2021/12/22 08:31:41;;;;;;;11.65;7.57;;;;;;;-2.79;71.50;101676.41;5034639;28;20485;-51
2021/12/22 08:34:08;;;;;;;10.65;6.88;;;;;;;-2.61;71.17;101675.59;5036796;28;20033;-53
2021/12/22 08:39:19;;;;;;;12.15;7.60;;;;;;;-2.46;69.05;101680.66;5054048;28;20044;-54
2021/12/22 08:41:47;;;;;;;13.02;7.25;;;;;;;-2.35;69.57;101688.13;5054697;28;20069;-55
2021/12/22 08:44:16;;;;;;;17.30;8.43;;;;;;;-2.31;69.14;101684.03;5054493;28;20028;-53
2021/12/22 08:46:46;;;;;;;12.40;6.75;;;;;;;-2.30;69.25;101690.94;5053752;28;20449;-52
2021/12/22 08:49:12;;;;;;;16.65;7.15;;;;;;;-2.32;69.08;101687.38;5052816;28;20064;-54
2021/12/22 08:51:37;;;;;;;13.07;6.60;;;;;;;-2.34;69.13;101692.47;5048291;28;20072;-51
2021/12/22 08:54:03;;;;;;;12.95;6.13;;;;;;;-2.24;69.70;101694.69;5034208;28;20088;-54
2021/12/22 08:56:29;;;;;;;13.88;7.57;;;;;;;-2.13;69.01;101689.22;5053257;28;20135;-51
2021/12/22 08:58:55;;;;;;;16.00;8.95;;;;;;;-1.99;68.79;101688.22;5050809;28;20038;-54
2021/12/22 09:01:22;;;;;;;18.10;8.75;;;;;;;-1.87;68.89;101687.97;5037607;28;20099;-52
2021/12/22 09:03:48;;;;;;;17.50;8.75;;;;;;;-1.79;67.80;101684.06;5034529;28;20043;-55
2021/12/22 09:06:13;;;;;;;16.13;7.70;;;;;;;-1.72;67.59;101678.38;5034147;28;20120;-55
2021/12/22 09:08:40;;;;;;;14.18;8.00;;;;;;;-1.70;67.27;101681.91;5041122;28;20075;-54
2021/12/22 09:11:05;;;;;;;14.65;8.02;;;;;;;-1.62;67.43;101684.88;5054214;28;20055;-53
2021/12/22 09:13:31;;;;;;;16.77;8.43;;;;;;;-1.53;67.56;101680.16;5048449;28;20484;-54
2021/12/22 09:15:57;;;;;;;13.13;7.18;;;;;;;-1.37;67.42;101685.22;5040198;28;20495;-55
2021/12/22 09:18:22;;;;;;;13.45;7.35;;;;;;;-1.23;67.43;101679.84;5054183;28;20032;-54
2021/12/22 09:20:48;;;;;;;11.95;6.72;;;;;;;-1.02;66.65;101673.09;5054200;28;20468;-54
2021/12/22 09:23:14;;;;;;;13.52;7.10;;;;;;;-0.93;66.58;101670.94;5050605;28;20444;-55
2021/12/22 09:25:39;;;;;;;15.15;8.85;;;;;;;-0.84;66.29;101673.94;5032690;28;20529;-53
2021/12/22 09:28:06;;;;;;;26.90;13.30;;;;;;;-0.73;66.18;101670.94;5043796;28;20116;-52
2021/12/22 09:30:36;;;;;;;30.45;15.02;;;;;;;-0.60;66.10;101674.16;5037063;28;20044;-54
2021/12/22 09:33:07;;;;;;;108.82;45.05;;;;;;;-0.50;66.10;101671.13;5053790;28;20076;-53
2021/12/22 09:35:33;;;;;;;67.05;31.40;;;;;;;-0.30;65.85;101672.00;5051344;28;20457;-53
2021/12/22 09:37:59;;;;;;;27.13;13.10;;;;;;;-0.11;65.49;101678.84;5052649;28;20029;-56
2021/12/22 09:40:25;;;;;;;18.00;9.35;;;;;;;-0.08;64.93;101676.41;5044018;28;20044;-56
2021/12/22 09:42:50;;;;;;;15.35;8.18;;;;;;;0.08;64.45;101670.16;5064832;28;20587;-55
2021/12/22 09:45:17;;;;;;;15.38;7.60;;;;;;;0.17;64.25;101670.53;5053674;28;20049;-55
2021/12/22 09:48:14;;;;;;;27.63;13.25;;;;;;;0.24;64.60;101677.72;5063057;28;20113;-53
2021/12/22 09:50:44;;;;;;;15.82;7.95;;;;;;;0.15;63.63;101681.63;5073017;28;20036;-56
2021/12/22 09:53:10;;;;;;;14.98;7.53;;;;;;;0.07;64.08;101676.13;5066220;28;20472;-55
2021/12/22 09:55:36;;;;;;;13.38;7.28;;;;;;;0.05;64.08;101669.16;5073872;28;20091;-54
2021/12/22 09:58:03;;;;;;;15.93;7.63;;;;;;;-0.02;64.58;101674.06;5073442;28;20043;-55
2021/12/22 10:00:30;;;;;;;14.30;7.60;;;;;;;0.06;64.41;101671.78;5073696;28;20051;-54
2021/12/22 10:02:56;;;;;;;12.07;6.78;;;;;;;0.06;64.60;101669.22;5073594;28;20146;-53
2021/12/22 10:05:22;;;;;;;15.60;8.13;;;;;;;0.16;64.54;101662.69;5072477;28;20052;-53
2021/12/22 10:08:10;;;;;;;12.77;6.82;;;;;;;0.17;63.97;101669.66;5073386;28;20029;-55
2021/12/22 10:10:39;;;;;;;15.73;7.78;;;;;;;0.01;64.01;101662.97;5073463;28;20060;-56
2021/12/22 10:13:06;;;;;;;13.43;7.20;;;;;;;-0.12;64.45;101659.00;5063190;28;20031;-54
2021/12/22 10:15:34;;;;;;;14.00;7.18;;;;;;;-0.21;64.94;101653.44;5033342;28;20045;-55
2021/12/22 10:18:14;;;;;;;12.43;7.18;;;;;;;-0.24;65.17;101661.03;5033282;28;20038;-56
2021/12/22 10:20:42;;;;;;;12.20;7.03;;;;;;;-0.23;65.88;101656.78;5033530;28;20026;-57
2021/12/22 10:23:28;;;;;;;11.07;6.80;;;;;;;-0.22;65.43;101650.78;5035480;28;20151;-58
2021/12/22 10:25:59;;;;;;;12.60;6.40;;;;;;;-0.42;65.11;101650.81;5052980;28;20033;-55
2021/12/22 10:28:26;;;;;;;9.18;5.93;;;;;;;-0.14;65.36;101652.00;5051377;28;20036;-55
2021/12/22 10:30:58;;;;;;;9.98;5.80;;;;;;;-0.09;65.00;101642.72;5044846;28;20060;-57
2021/12/22 10:33:28;;;;;;;10.03;5.67;;;;;;;0.09;64.84;101651.25;5044085;28;20040;-56
2021/12/22 10:35:56;;;;;;;8.63;5.07;;;;;;;0.13;64.33;101637.63;5042051;28;20056;-56
2021/12/22 10:38:27;;;;;;;9.60;5.40;;;;;;;0.31;64.30;101641.75;5053095;28;20041;-55
2021/12/22 10:41:04;;;;;;;10.07;5.47;;;;;;;0.49;63.50;101638.22;5052880;28;20040;-55
2021/12/22 10:43:32;;;;;;;8.57;4.97;;;;;;;0.51;63.88;101638.25;5042006;28;20129;-56
2021/12/22 10:46:00;;;;;;;8.88;4.95;;;;;;;0.59;63.70;101636.84;5051969;28;20060;-56
2021/12/22 10:51:30;;;;;;;8.52;4.30;;;;;;;0.93;62.61;101625.22;5052922;28;20071;-56
2021/12/22 10:53:56;;;;;;;7.18;4.05;;;;;;;1.18;62.88;101627.00;5052776;28;20519;-57
2021/12/22 10:56:34;;;;;;;7.15;3.88;;;;;;;1.27;62.00;101631.63;5051961;28;20040;-59
2021/12/22 10:59:01;;;;;;;6.63;4.10;;;;;;;1.31;62.31;101633.50;5052571;28;20380;-55
2021/12/22 11:01:26;;;;;;;6.07;3.67;;;;;;;1.51;61.94;101627.31;5052599;28;20112;-57
2021/12/22 11:04:01;;;;;;;7.30;4.00;;;;;;;1.46;62.29;101621.09;5052636;28;20553;-55
2021/12/22 11:06:29;;;;;;;7.78;4.00;;;;;;;1.46;62.76;101621.09;5051336;28;20029;-56
2021/12/22 11:09:13;;;;;;;6.82;3.90;;;;;;;1.18;62.67;101632.16;5054727;28;20041;-57
2021/12/22 11:11:40;;;;;;;;;;;;;;;1.18;62.69;101638.22;5057235;28;20033;-55
2021/12/22 11:14:09;;;;;;;6.22;3.25;;;;;;;1.06;63.65;101634.31;5054945;28;19916;-56
2021/12/22 11:16:55;;;;;;;7.25;3.58;;;;;;;0.97;62.86;101629.69;5056210;28;20036;-57
2021/12/22 11:19:23;;;;;;;5.60;3.10;;;;;;;0.96;63.81;101626.22;5056301;28;20103;-59
2021/12/22 11:22:14;;;;;;;9.20;4.43;;;;;;;0.90;64.03;101632.84;5056406;28;20041;-57
2021/12/22 11:24:51;;;;;;;6.32;3.13;;;;;;;0.89;64.21;101621.63;5056201;28;20472;-57
2021/12/22 11:27:25;;;;;;;7.65;3.45;;;;;;;0.89;64.20;101623.34;5055896;28;20431;-55
2021/12/22 11:29:56;;;;;;;6.05;3.45;;;;;;;0.91;64.47;101619.09;5056023;28;20048;-58
2021/12/22 11:32:24;;;;;;;7.55;3.90;;;;;;;1.03;64.65;101611.78;5056177;28;20158;-56
2021/12/22 11:34:52;;;;;;;9.65;4.05;;;;;;;1.19;64.18;101620.97;5056177;28;20060;-57
2021/12/22 11:37:19;;;;;;;6.43;3.53;;;;;;;1.36;64.46;101617.31;5056006;28;20025;-56
2021/12/22 11:39:45;;;;;;;9.70;4.47;;;;;;;1.53;64.43;101620.47;5055619;28;20021;-57